sensor_id;sensor_type;location;lat;lon;timestamp;P1;durP1;ratioP1;P2;durP2;ratioP2
52554;SDS011;38455;52.710;6.502;2023-06-19T00:01:47;9.15;;;6.07;;
52554;SDS011;38455;52.710;6.502;2023-06-19T00:04:12;8.55;;;6.60;;
52554;SDS011;38455;52.710;6.502;2023-06-19T00:06:38;8.23;;;6.13;;
52554;SDS011;38455;52.710;6.502;2023-06-19T00:09:04;7.95;;;6.07;;
52554;SDS011;38455;52.710;6.502;2023-06-19T00:11:32;9.90;;;6.25;;
52554;SDS011;38455;52.710;6.502;2023-06-19T00:13:57;6.75;;;5.95;;
52554;SDS011;38455;52.710;6.502;2023-06-19T00:16:23;9.52;;;7.03;;
52554;SDS011;38455;52.710;6.502;2023-06-19T00:18:50;7.75;;;6.00;;
52554;SDS011;38455;52.710;6.502;2023-06-19T00:21:16;8.50;;;6.47;;
52554;SDS011;38455;52.710;6.502;2023-06-19T00:23:42;7.18;;;5.78;;
52554;SDS011;38455;52.710;6.502;2023-06-19T00:26:08;7.75;;;6.43;;
52554;SDS011;38455;52.710;6.502;2023-06-19T00:28:34;8.35;;;5.78;;
52554;SDS011;38455;52.710;6.502;2023-06-19T00:30:59;8.02;;;6.38;;
52554;SDS011;38455;52.710;6.502;2023-06-19T00:33:25;8.77;;;6.22;;
52554;SDS011;38455;52.710;6.502;2023-06-19T00:35:51;9.35;;;6.00;;
52554;SDS011;38455;52.710;6.502;2023-06-19T00:38:17;11.38;;;6.70;;
52554;SDS011;38455;52.710;6.502;2023-06-19T00:40:42;8.55;;;6.50;;
52554;SDS011;38455;52.710;6.502;2023-06-19T00:43:08;8.95;;;6.55;;
52554;SDS011;38455;52.710;6.502;2023-06-19T00:45:35;9.35;;;6.00;;
52554;SDS011;38455;52.710;6.502;2023-06-19T00:48:01;7.35;;;5.60;;
52554;SDS011;38455;52.710;6.502;2023-06-19T00:50:27;7.55;;;5.88;;
52554;SDS011;38455;52.710;6.502;2023-06-19T00:52:54;7.97;;;6.70;;
52554;SDS011;38455;52.710;6.502;2023-06-19T00:55:20;9.73;;;6.85;;
52554;SDS011;38455;52.710;6.502;2023-06-19T00:57:46;10.10;;;5.97;;
52554;SDS011;38455;52.710;6.502;2023-06-19T01:00:14;8.95;;;6.15;;
52554;SDS011;38455;52.710;6.502;2023-06-19T01:02:40;11.20;;;6.00;;
52554;SDS011;38455;52.710;6.502;2023-06-19T01:05:05;7.90;;;5.85;;
52554;SDS011;38455;52.710;6.502;2023-06-19T01:07:41;9.70;;;6.22;;
52554;SDS011;38455;52.710;6.502;2023-06-19T01:10:16;7.88;;;6.43;;
52554;SDS011;38455;52.710;6.502;2023-06-19T01:13:02;6.82;;;5.78;;
52554;SDS011;38455;52.710;6.502;2023-06-19T01:15:38;8.93;;;6.50;;
52554;SDS011;38455;52.710;6.502;2023-06-19T01:18:06;9.77;;;6.63;;
52554;SDS011;38455;52.710;6.502;2023-06-19T01:20:32;11.07;;;6.15;;
52554;SDS011;38455;52.710;6.502;2023-06-19T01:23:04;7.38;;;6.47;;
52554;SDS011;38455;52.710;6.502;2023-06-19T01:25:31;7.97;;;6.10;;
52554;SDS011;38455;52.710;6.502;2023-06-19T01:27:57;8.05;;;7.00;;
52554;SDS011;38455;52.710;6.502;2023-06-19T01:30:23;7.07;;;6.07;;
52554;SDS011;38455;52.710;6.502;2023-06-19T01:33:04;7.25;;;6.10;;
52554;SDS011;38455;52.710;6.502;2023-06-19T01:35:40;11.15;;;6.63;;
52554;SDS011;38455;52.710;6.502;2023-06-19T01:38:08;9.43;;;6.70;;
52554;SDS011;38455;52.710;6.502;2023-06-19T01:40:35;10.98;;;6.90;;
52554;SDS011;38455;52.710;6.502;2023-06-19T01:43:02;9.32;;;6.93;;
52554;SDS011;38455;52.710;6.502;2023-06-19T01:45:30;8.38;;;6.03;;
52554;SDS011;38455;52.710;6.502;2023-06-19T01:47:57;9.40;;;6.55;;
52554;SDS011;38455;52.710;6.502;2023-06-19T01:50:22;10.00;;;7.07;;
52554;SDS011;38455;52.710;6.502;2023-06-19T01:52:49;10.40;;;6.82;;
52554;SDS011;38455;52.710;6.502;2023-06-19T01:55:15;9.90;;;6.65;;
52554;SDS011;38455;52.710;6.502;2023-06-19T01:57:41;8.15;;;6.60;;
52554;SDS011;38455;52.710;6.502;2023-06-19T02:00:07;9.30;;;6.80;;
52554;SDS011;38455;52.710;6.502;2023-06-19T02:02:33;10.10;;;6.53;;
52554;SDS011;38455;52.710;6.502;2023-06-19T02:04:59;9.38;;;6.63;;
52554;SDS011;38455;52.710;6.502;2023-06-19T02:07:24;9.68;;;6.65;;
52554;SDS011;38455;52.710;6.502;2023-06-19T02:09:50;7.53;;;6.10;;
52554;SDS011;38455;52.710;6.502;2023-06-19T02:12:16;8.60;;;6.68;;
52554;SDS011;38455;52.710;6.502;2023-06-19T02:14:41;11.20;;;6.63;;
52554;SDS011;38455;52.710;6.502;2023-06-19T02:17:07;8.93;;;5.68;;
52554;SDS011;38455;52.710;6.502;2023-06-19T02:19:32;7.90;;;5.95;;
52554;SDS011;38455;52.710;6.502;2023-06-19T02:21:58;10.10;;;6.00;;
52554;SDS011;38455;52.710;6.502;2023-06-19T02:24:24;8.23;;;6.75;;
52554;SDS011;38455;52.710;6.502;2023-06-19T02:26:50;8.75;;;6.13;;
52554;SDS011;38455;52.710;6.502;2023-06-19T02:29:15;8.57;;;6.28;;
52554;SDS011;38455;52.710;6.502;2023-06-19T02:31:41;6.70;;;5.93;;
52554;SDS011;38455;52.710;6.502;2023-06-19T02:34:07;9.30;;;6.00;;
52554;SDS011;38455;52.710;6.502;2023-06-19T02:36:34;8.85;;;6.30;;
52554;SDS011;38455;52.710;6.502;2023-06-19T02:39:00;8.57;;;6.53;;
52554;SDS011;38455;52.710;6.502;2023-06-19T02:41:26;10.77;;;6.70;;
52554;SDS011;38455;52.710;6.502;2023-06-19T02:43:52;9.02;;;7.00;;
52554;SDS011;38455;52.710;6.502;2023-06-19T02:46:17;11.40;;;5.78;;
52554;SDS011;38455;52.710;6.502;2023-06-19T02:48:43;8.82;;;5.95;;
52554;SDS011;38455;52.710;6.502;2023-06-19T02:51:09;8.40;;;5.32;;
52554;SDS011;38455;52.710;6.502;2023-06-19T02:53:34;7.68;;;5.45;;
52554;SDS011;38455;52.710;6.502;2023-06-19T02:56:00;8.40;;;5.45;;
52554;SDS011;38455;52.710;6.502;2023-06-19T02:58:26;8.02;;;5.90;;
52554;SDS011;38455;52.710;6.502;2023-06-19T03:00:54;9.45;;;5.32;;
52554;SDS011;38455;52.710;6.502;2023-06-19T03:03:20;6.05;;;5.10;;
52554;SDS011;38455;52.710;6.502;2023-06-19T03:05:45;11.60;;;5.63;;
52554;SDS011;38455;52.710;6.502;2023-06-19T03:08:11;15.00;;;5.50;;
52554;SDS011;38455;52.710;6.502;2023-06-19T03:10:37;6.00;;;5.22;;
52554;SDS011;38455;52.710;6.502;2023-06-19T03:13:02;7.03;;;5.50;;
52554;SDS011;38455;52.710;6.502;2023-06-19T03:15:28;8.50;;;5.53;;
52554;SDS011;38455;52.710;6.502;2023-06-19T03:17:53;8.60;;;5.70;;
52554;SDS011;38455;52.710;6.502;2023-06-19T03:20:19;10.90;;;5.95;;
52554;SDS011;38455;52.710;6.502;2023-06-19T03:22:45;7.68;;;5.30;;
52554;SDS011;38455;52.710;6.502;2023-06-19T03:25:11;7.82;;;4.63;;
52554;SDS011;38455;52.710;6.502;2023-06-19T03:27:37;9.13;;;5.20;;
52554;SDS011;38455;52.710;6.502;2023-06-19T03:30:03;8.23;;;5.10;;
52554;SDS011;38455;52.710;6.502;2023-06-19T03:32:31;10.52;;;5.13;;
52554;SDS011;38455;52.710;6.502;2023-06-19T03:34:58;7.97;;;5.18;;
52554;SDS011;38455;52.710;6.502;2023-06-19T03:37:24;8.35;;;5.20;;
52554;SDS011;38455;52.710;6.502;2023-06-19T03:39:49;8.88;;;5.20;;
52554;SDS011;38455;52.710;6.502;2023-06-19T03:42:15;8.25;;;5.05;;
52554;SDS011;38455;52.710;6.502;2023-06-19T03:44:40;7.85;;;4.20;;
52554;SDS011;38455;52.710;6.502;2023-06-19T03:47:06;6.63;;;3.72;;
52554;SDS011;38455;52.710;6.502;2023-06-19T03:49:32;9.32;;;3.20;;
52554;SDS011;38455;52.710;6.502;2023-06-19T03:51:57;5.88;;;3.13;;
52554;SDS011;38455;52.710;6.502;2023-06-19T03:54:23;4.72;;;3.65;;
52554;SDS011;38455;52.710;6.502;2023-06-19T03:56:50;4.85;;;3.05;;
52554;SDS011;38455;52.710;6.502;2023-06-19T03:59:16;4.32;;;3.00;;
52554;SDS011;38455;52.710;6.502;2023-06-19T04:01:41;7.03;;;3.17;;
52554;SDS011;38455;52.710;6.502;2023-06-19T04:04:07;6.00;;;2.42;;
52554;SDS011;38455;52.710;6.502;2023-06-19T04:06:33;6.18;;;3.20;;
52554;SDS011;38455;52.710;6.502;2023-06-19T04:08:59;5.45;;;2.78;;
52554;SDS011;38455;52.710;6.502;2023-06-19T04:11:24;4.28;;;2.85;;
52554;SDS011;38455;52.710;6.502;2023-06-19T04:13:50;5.07;;;3.08;;
52554;SDS011;38455;52.710;6.502;2023-06-19T04:16:15;6.03;;;3.13;;
52554;SDS011;38455;52.710;6.502;2023-06-19T04:18:41;3.67;;;2.95;;
52554;SDS011;38455;52.710;6.502;2023-06-19T04:21:07;5.75;;;3.10;;
52554;SDS011;38455;52.710;6.502;2023-06-19T04:23:32;4.25;;;3.28;;
52554;SDS011;38455;52.710;6.502;2023-06-19T04:25:58;4.55;;;2.70;;
52554;SDS011;38455;52.710;6.502;2023-06-19T04:28:24;7.50;;;2.92;;
52554;SDS011;38455;52.710;6.502;2023-06-19T04:30:51;9.10;;;2.95;;
52554;SDS011;38455;52.710;6.502;2023-06-19T04:33:25;7.68;;;2.95;;
52554;SDS011;38455;52.710;6.502;2023-06-19T04:35:54;5.57;;;2.80;;
52554;SDS011;38455;52.710;6.502;2023-06-19T04:38:23;6.85;;;3.08;;
52554;SDS011;38455;52.710;6.502;2023-06-19T04:40:52;4.45;;;3.60;;
52554;SDS011;38455;52.710;6.502;2023-06-19T04:43:18;7.65;;;3.30;;
52554;SDS011;38455;52.710;6.502;2023-06-19T04:45:44;4.88;;;3.03;;
52554;SDS011;38455;52.710;6.502;2023-06-19T04:48:10;4.10;;;2.80;;
52554;SDS011;38455;52.710;6.502;2023-06-19T04:50:36;3.90;;;3.00;;
52554;SDS011;38455;52.710;6.502;2023-06-19T04:53:02;5.82;;;3.17;;
52554;SDS011;38455;52.710;6.502;2023-06-19T04:55:28;4.32;;;3.20;;
52554;SDS011;38455;52.710;6.502;2023-06-19T04:57:53;5.80;;;3.17;;
52554;SDS011;38455;52.710;6.502;2023-06-19T05:00:20;4.78;;;3.05;;
52554;SDS011;38455;52.710;6.502;2023-06-19T05:02:48;4.13;;;3.28;;
52554;SDS011;38455;52.710;6.502;2023-06-19T05:05:14;4.63;;;2.92;;
52554;SDS011;38455;52.710;6.502;2023-06-19T05:07:40;8.43;;;2.90;;
52554;SDS011;38455;52.710;6.502;2023-06-19T05:10:07;3.55;;;2.85;;
52554;SDS011;38455;52.710;6.502;2023-06-19T05:12:36;4.15;;;3.05;;
52554;SDS011;38455;52.710;6.502;2023-06-19T05:15:02;4.40;;;2.90;;
52554;SDS011;38455;52.710;6.502;2023-06-19T05:17:28;5.75;;;3.45;;
52554;SDS011;38455;52.710;6.502;2023-06-19T05:19:54;4.32;;;3.08;;
52554;SDS011;38455;52.710;6.502;2023-06-19T05:22:19;4.00;;;3.17;;
52554;SDS011;38455;52.710;6.502;2023-06-19T05:24:46;4.38;;;2.70;;
52554;SDS011;38455;52.710;6.502;2023-06-19T05:27:12;6.30;;;3.35;;
52554;SDS011;38455;52.710;6.502;2023-06-19T05:29:38;4.32;;;2.70;;
52554;SDS011;38455;52.710;6.502;2023-06-19T05:32:04;3.85;;;2.70;;
52554;SDS011;38455;52.710;6.502;2023-06-19T05:34:30;4.15;;;2.92;;
52554;SDS011;38455;52.710;6.502;2023-06-19T05:36:55;4.65;;;3.60;;
52554;SDS011;38455;52.710;6.502;2023-06-19T05:39:22;3.47;;;2.90;;
52554;SDS011;38455;52.710;6.502;2023-06-19T05:41:47;4.38;;;3.05;;
52554;SDS011;38455;52.710;6.502;2023-06-19T05:44:13;3.97;;;3.10;;
52554;SDS011;38455;52.710;6.502;2023-06-19T05:46:41;6.47;;;3.55;;
52554;SDS011;38455;52.710;6.502;2023-06-19T05:49:07;5.15;;;3.65;;
52554;SDS011;38455;52.710;6.502;2023-06-19T05:51:33;5.03;;;3.20;;
52554;SDS011;38455;52.710;6.502;2023-06-19T05:53:59;5.55;;;3.33;;
52554;SDS011;38455;52.710;6.502;2023-06-19T05:56:29;4.60;;;3.47;;
52554;SDS011;38455;52.710;6.502;2023-06-19T05:58:55;5.30;;;3.88;;
52554;SDS011;38455;52.710;6.502;2023-06-19T06:01:21;10.30;;;3.03;;
52554;SDS011;38455;52.710;6.502;2023-06-19T06:03:46;4.07;;;3.05;;
52554;SDS011;38455;52.710;6.502;2023-06-19T06:06:12;4.53;;;3.40;;
52554;SDS011;38455;52.710;6.502;2023-06-19T06:08:38;5.40;;;3.92;;
52554;SDS011;38455;52.710;6.502;2023-06-19T06:11:03;9.18;;;4.35;;
52554;SDS011;38455;52.710;6.502;2023-06-19T06:13:29;7.63;;;3.90;;
52554;SDS011;38455;52.710;6.502;2023-06-19T06:15:54;5.15;;;3.75;;
52554;SDS011;38455;52.710;6.502;2023-06-19T06:18:20;5.25;;;3.42;;
52554;SDS011;38455;52.710;6.502;2023-06-19T06:20:46;6.30;;;4.05;;
52554;SDS011;38455;52.710;6.502;2023-06-19T06:23:11;6.53;;;4.35;;
52554;SDS011;38455;52.710;6.502;2023-06-19T06:25:37;7.35;;;4.55;;
52554;SDS011;38455;52.710;6.502;2023-06-19T06:28:02;6.00;;;4.30;;
52554;SDS011;38455;52.710;6.502;2023-06-19T06:30:28;6.53;;;3.97;;
52554;SDS011;38455;52.710;6.502;2023-06-19T06:32:54;9.65;;;5.43;;
52554;SDS011;38455;52.710;6.502;2023-06-19T06:35:20;7.40;;;4.97;;
52554;SDS011;38455;52.710;6.502;2023-06-19T06:37:46;6.65;;;5.10;;
52554;SDS011;38455;52.710;6.502;2023-06-19T06:40:14;6.93;;;5.05;;
52554;SDS011;38455;52.710;6.502;2023-06-19T06:42:40;11.13;;;4.90;;
52554;SDS011;38455;52.710;6.502;2023-06-19T06:45:06;8.27;;;5.05;;
52554;SDS011;38455;52.710;6.502;2023-06-19T06:47:32;11.35;;;5.35;;
52554;SDS011;38455;52.710;6.502;2023-06-19T06:49:59;6.10;;;5.50;;
52554;SDS011;38455;52.710;6.502;2023-06-19T06:52:24;6.85;;;5.05;;
52554;SDS011;38455;52.710;6.502;2023-06-19T06:54:50;8.10;;;5.43;;
52554;SDS011;38455;52.710;6.502;2023-06-19T06:57:16;8.90;;;5.90;;
52554;SDS011;38455;52.710;6.502;2023-06-19T06:59:42;6.20;;;5.18;;
52554;SDS011;38455;52.710;6.502;2023-06-19T07:02:07;10.45;;;5.90;;
52554;SDS011;38455;52.710;6.502;2023-06-19T07:04:33;7.43;;;6.18;;
52554;SDS011;38455;52.710;6.502;2023-06-19T07:06:59;6.97;;;6.13;;
52554;SDS011;38455;52.710;6.502;2023-06-19T07:09:25;6.57;;;5.88;;
52554;SDS011;38455;52.710;6.502;2023-06-19T07:11:50;9.43;;;5.40;;
52554;SDS011;38455;52.710;6.502;2023-06-19T07:14:16;8.43;;;5.85;;
52554;SDS011;38455;52.710;6.502;2023-06-19T07:16:43;5.93;;;5.00;;
52554;SDS011;38455;52.710;6.502;2023-06-19T07:19:10;6.00;;;4.90;;
52554;SDS011;38455;52.710;6.502;2023-06-19T07:21:36;6.57;;;4.95;;
52554;SDS011;38455;52.710;6.502;2023-06-19T07:24:03;7.53;;;5.18;;
52554;SDS011;38455;52.710;6.502;2023-06-19T07:26:30;7.90;;;5.32;;
52554;SDS011;38455;52.710;6.502;2023-06-19T07:28:55;8.57;;;5.22;;
52554;SDS011;38455;52.710;6.502;2023-06-19T07:31:21;6.55;;;4.68;;
52554;SDS011;38455;52.710;6.502;2023-06-19T07:33:47;8.90;;;4.72;;
52554;SDS011;38455;52.710;6.502;2023-06-19T07:36:12;6.93;;;5.10;;
52554;SDS011;38455;52.710;6.502;2023-06-19T07:38:42;6.35;;;5.75;;
52554;SDS011;38455;52.710;6.502;2023-06-19T07:41:08;6.18;;;5.53;;
52554;SDS011;38455;52.710;6.502;2023-06-19T07:43:35;6.70;;;6.00;;
52554;SDS011;38455;52.710;6.502;2023-06-19T07:46:01;9.70;;;7.60;;
52554;SDS011;38455;52.710;6.502;2023-06-19T07:48:27;8.07;;;6.65;;
52554;SDS011;38455;52.710;6.502;2023-06-19T07:50:53;8.77;;;6.55;;
52554;SDS011;38455;52.710;6.502;2023-06-19T07:53:19;11.00;;;6.32;;
52554;SDS011;38455;52.710;6.502;2023-06-19T07:55:45;8.02;;;5.47;;
52554;SDS011;38455;52.710;6.502;2023-06-19T07:58:11;6.88;;;5.72;;
52554;SDS011;38455;52.710;6.502;2023-06-19T08:00:36;6.45;;;5.78;;
52554;SDS011;38455;52.710;6.502;2023-06-19T08:03:02;7.95;;;5.93;;
52554;SDS011;38455;52.710;6.502;2023-06-19T08:05:28;7.72;;;6.13;;
52554;SDS011;38455;52.710;6.502;2023-06-19T08:07:53;10.10;;;6.18;;
52554;SDS011;38455;52.710;6.502;2023-06-19T08:10:19;10.25;;;6.00;;
52554;SDS011;38455;52.710;6.502;2023-06-19T08:12:44;7.18;;;5.22;;
52554;SDS011;38455;52.710;6.502;2023-06-19T08:15:11;7.53;;;5.05;;
52554;SDS011;38455;52.710;6.502;2023-06-19T08:17:38;6.40;;;5.18;;
52554;SDS011;38455;52.710;6.502;2023-06-19T08:20:05;7.05;;;5.43;;
52554;SDS011;38455;52.710;6.502;2023-06-19T08:22:32;8.77;;;5.05;;
52554;SDS011;38455;52.710;6.502;2023-06-19T08:24:57;7.15;;;4.97;;
52554;SDS011;38455;52.710;6.502;2023-06-19T08:27:23;6.47;;;5.75;;
52554;SDS011;38455;52.710;6.502;2023-06-19T08:29:49;7.22;;;6.50;;
52554;SDS011;38455;52.710;6.502;2023-06-19T08:32:14;7.97;;;7.00;;
52554;SDS011;38455;52.710;6.502;2023-06-19T08:34:40;8.15;;;7.35;;
52554;SDS011;38455;52.710;6.502;2023-06-19T08:37:07;10.80;;;7.50;;
52554;SDS011;38455;52.710;6.502;2023-06-19T08:39:33;10.85;;;8.65;;
52554;SDS011;38455;52.710;6.502;2023-06-19T08:42:01;8.30;;;7.47;;
52554;SDS011;38455;52.710;6.502;2023-06-19T08:44:27;6.65;;;5.95;;
52554;SDS011;38455;52.710;6.502;2023-06-19T08:46:53;6.90;;;4.50;;
52554;SDS011;38455;52.710;6.502;2023-06-19T08:49:18;5.90;;;5.25;;
52554;SDS011;38455;52.710;6.502;2023-06-19T08:51:44;8.30;;;6.03;;
52554;SDS011;38455;52.710;6.502;2023-06-19T08:54:10;6.30;;;5.60;;
52554;SDS011;38455;52.710;6.502;2023-06-19T08:56:35;7.15;;;6.10;;
52554;SDS011;38455;52.710;6.502;2023-06-19T08:59:09;9.43;;;5.35;;
52554;SDS011;38455;52.710;6.502;2023-06-19T09:01:37;7.95;;;5.85;;
52554;SDS011;38455;52.710;6.502;2023-06-19T09:04:10;6.70;;;4.13;;
52554;SDS011;38455;52.710;6.502;2023-06-19T09:06:50;6.25;;;4.97;;
52554;SDS011;38455;52.710;6.502;2023-06-19T09:09:19;7.40;;;4.65;;
52554;SDS011;38455;52.710;6.502;2023-06-19T09:12:03;8.32;;;5.28;;
52554;SDS011;38455;52.710;6.502;2023-06-19T09:14:49;5.82;;;4.97;;
52554;SDS011;38455;52.710;6.502;2023-06-19T09:17:18;7.53;;;5.18;;
52554;SDS011;38455;52.710;6.502;2023-06-19T09:19:48;6.72;;;5.32;;
52554;SDS011;38455;52.710;6.502;2023-06-19T09:22:15;6.93;;;5.25;;
52554;SDS011;38455;52.710;6.502;2023-06-19T09:24:43;8.95;;;4.93;;
52554;SDS011;38455;52.710;6.502;2023-06-19T09:29:38;5.53;;;4.93;;
52554;SDS011;38455;52.710;6.502;2023-06-19T09:34:39;5.75;;;5.13;;
52554;SDS011;38455;52.710;6.502;2023-06-19T09:37:05;5.55;;;4.70;;
52554;SDS011;38455;52.710;6.502;2023-06-19T09:39:32;5.60;;;4.93;;
52554;SDS011;38455;52.710;6.502;2023-06-19T09:41:59;5.65;;;4.88;;
52554;SDS011;38455;52.710;6.502;2023-06-19T09:44:29;7.32;;;5.20;;
52554;SDS011;38455;52.710;6.502;2023-06-19T09:46:59;8.45;;;5.40;;
52554;SDS011;38455;52.710;6.502;2023-06-19T09:49:27;9.23;;;5.28;;
52554;SDS011;38455;52.710;6.502;2023-06-19T09:51:56;7.97;;;4.85;;
52554;SDS011;38455;52.710;6.502;2023-06-19T09:54:23;8.35;;;4.53;;
52554;SDS011;38455;52.710;6.502;2023-06-19T09:56:50;6.47;;;5.15;;
52554;SDS011;38455;52.710;6.502;2023-06-19T09:59:20;7.43;;;5.15;;
52554;SDS011;38455;52.710;6.502;2023-06-19T10:01:47;7.22;;;5.82;;
52554;SDS011;38455;52.710;6.502;2023-06-19T10:04:14;7.72;;;5.97;;
52554;SDS011;38455;52.710;6.502;2023-06-19T10:06:44;9.98;;;6.43;;
52554;SDS011;38455;52.710;6.502;2023-06-19T10:09:11;10.00;;;6.57;;
52554;SDS011;38455;52.710;6.502;2023-06-19T10:14:12;7.75;;;6.45;;
52554;SDS011;38455;52.710;6.502;2023-06-19T10:16:39;12.07;;;7.60;;
52554;SDS011;38455;52.710;6.502;2023-06-19T10:19:13;9.63;;;6.90;;
52554;SDS011;38455;52.710;6.502;2023-06-19T10:21:49;8.77;;;6.65;;
52554;SDS011;38455;52.710;6.502;2023-06-19T10:24:18;9.65;;;7.00;;
52554;SDS011;38455;52.710;6.502;2023-06-19T10:26:55;9.70;;;7.18;;
52554;SDS011;38455;52.710;6.502;2023-06-19T10:29:22;9.57;;;6.95;;
52554;SDS011;38455;52.710;6.502;2023-06-19T10:31:48;7.85;;;6.00;;
52554;SDS011;38455;52.710;6.502;2023-06-19T10:34:14;8.10;;;5.63;;
52554;SDS011;38455;52.710;6.502;2023-06-19T10:36:40;8.18;;;6.45;;
52554;SDS011;38455;52.710;6.502;2023-06-19T10:39:05;10.10;;;7.00;;
52554;SDS011;38455;52.710;6.502;2023-06-19T10:41:32;13.95;;;6.60;;
52554;SDS011;38455;52.710;6.502;2023-06-19T10:43:59;9.05;;;6.70;;
52554;SDS011;38455;52.710;6.502;2023-06-19T10:46:28;8.48;;;6.03;;
52554;SDS011;38455;52.710;6.502;2023-06-19T10:48:55;11.38;;;6.13;;
52554;SDS011;38455;52.710;6.502;2023-06-19T10:51:26;7.40;;;4.78;;
52554;SDS011;38455;52.710;6.502;2023-06-19T10:53:56;7.30;;;4.70;;
52554;SDS011;38455;52.710;6.502;2023-06-19T10:56:22;8.45;;;5.60;;
52554;SDS011;38455;52.710;6.502;2023-06-19T10:58:56;8.18;;;4.95;;
52554;SDS011;38455;52.710;6.502;2023-06-19T11:01:22;9.15;;;5.22;;
52554;SDS011;38455;52.710;6.502;2023-06-19T11:03:48;9.18;;;6.05;;
52554;SDS011;38455;52.710;6.502;2023-06-19T11:06:19;8.90;;;5.85;;
52554;SDS011;38455;52.710;6.502;2023-06-19T11:08:50;7.70;;;6.05;;
52554;SDS011;38455;52.710;6.502;2023-06-19T11:11:17;7.70;;;5.30;;
52554;SDS011;38455;52.710;6.502;2023-06-19T11:13:45;7.25;;;6.40;;
52554;SDS011;38455;52.710;6.502;2023-06-19T11:16:11;9.68;;;5.57;;
52554;SDS011;38455;52.710;6.502;2023-06-19T11:18:39;9.15;;;6.22;;
52554;SDS011;38455;52.710;6.502;2023-06-19T11:21:04;7.20;;;5.80;;
52554;SDS011;38455;52.710;6.502;2023-06-19T11:23:30;8.32;;;6.22;;
52554;SDS011;38455;52.710;6.502;2023-06-19T11:26:02;8.30;;;6.10;;
52554;SDS011;38455;52.710;6.502;2023-06-19T11:28:28;8.75;;;5.82;;
52554;SDS011;38455;52.710;6.502;2023-06-19T11:31:01;8.23;;;6.05;;
52554;SDS011;38455;52.710;6.502;2023-06-19T11:33:30;8.85;;;6.85;;
52554;SDS011;38455;52.710;6.502;2023-06-19T11:35:59;8.35;;;6.40;;
52554;SDS011;38455;52.710;6.502;2023-06-19T11:38:26;7.15;;;5.57;;
52554;SDS011;38455;52.710;6.502;2023-06-19T11:40:53;8.15;;;6.20;;
52554;SDS011;38455;52.710;6.502;2023-06-19T11:43:30;8.95;;;6.60;;
52554;SDS011;38455;52.710;6.502;2023-06-19T11:46:02;7.45;;;6.38;;
52554;SDS011;38455;52.710;6.502;2023-06-19T11:48:29;10.02;;;6.90;;
52554;SDS011;38455;52.710;6.502;2023-06-19T11:50:55;8.93;;;6.88;;
52554;SDS011;38455;52.710;6.502;2023-06-19T11:53:21;9.68;;;7.30;;
52554;SDS011;38455;52.710;6.502;2023-06-19T11:55:48;9.77;;;7.03;;
52554;SDS011;38455;52.710;6.502;2023-06-19T11:58:15;8.85;;;7.80;;
52554;SDS011;38455;52.710;6.502;2023-06-19T12:00:41;12.00;;;7.28;;
52554;SDS011;38455;52.710;6.502;2023-06-19T12:03:07;11.82;;;7.72;;
52554;SDS011;38455;52.710;6.502;2023-06-19T12:05:34;10.27;;;6.95;;
52554;SDS011;38455;52.710;6.502;2023-06-19T12:08:00;8.88;;;7.22;;
52554;SDS011;38455;52.710;6.502;2023-06-19T12:10:29;9.65;;;7.45;;
52554;SDS011;38455;52.710;6.502;2023-06-19T12:12:55;8.18;;;6.60;;
52554;SDS011;38455;52.710;6.502;2023-06-19T12:15:21;9.75;;;7.60;;
52554;SDS011;38455;52.710;6.502;2023-06-19T12:17:47;9.45;;;7.38;;
52554;SDS011;38455;52.710;6.502;2023-06-19T12:20:13;13.43;;;7.97;;
52554;SDS011;38455;52.710;6.502;2023-06-19T12:22:39;10.05;;;7.78;;
52554;SDS011;38455;52.710;6.502;2023-06-19T12:25:05;13.63;;;7.95;;
52554;SDS011;38455;52.710;6.502;2023-06-19T12:27:31;10.50;;;7.78;;
52554;SDS011;38455;52.710;6.502;2023-06-19T12:29:56;12.95;;;7.80;;
52554;SDS011;38455;52.710;6.502;2023-06-19T12:32:22;8.15;;;7.20;;
52554;SDS011;38455;52.710;6.502;2023-06-19T12:34:48;10.77;;;7.47;;
52554;SDS011;38455;52.710;6.502;2023-06-19T12:37:14;9.60;;;7.50;;
52554;SDS011;38455;52.710;6.502;2023-06-19T12:39:42;11.77;;;8.32;;
52554;SDS011;38455;52.710;6.502;2023-06-19T12:42:09;10.30;;;8.45;;
52554;SDS011;38455;52.710;6.502;2023-06-19T12:44:37;12.63;;;8.38;;
52554;SDS011;38455;52.710;6.502;2023-06-19T12:47:04;10.95;;;8.07;;
52554;SDS011;38455;52.710;6.502;2023-06-19T12:49:30;11.95;;;8.80;;
52554;SDS011;38455;52.710;6.502;2023-06-19T12:51:56;9.63;;;7.75;;
52554;SDS011;38455;52.710;6.502;2023-06-19T12:54:22;12.35;;;8.60;;
52554;SDS011;38455;52.710;6.502;2023-06-19T12:56:48;12.57;;;8.93;;
52554;SDS011;38455;52.710;6.502;2023-06-19T12:59:14;12.32;;;8.40;;
52554;SDS011;38455;52.710;6.502;2023-06-19T13:01:40;11.57;;;7.88;;
52554;SDS011;38455;52.710;6.502;2023-06-19T13:04:09;9.43;;;7.93;;
52554;SDS011;38455;52.710;6.502;2023-06-19T13:06:36;11.98;;;7.45;;
52554;SDS011;38455;52.710;6.502;2023-06-19T13:09:02;10.68;;;7.43;;
52554;SDS011;38455;52.710;6.502;2023-06-19T13:11:29;18.00;;;8.48;;
52554;SDS011;38455;52.710;6.502;2023-06-19T13:13:55;7.60;;;6.28;;
52554;SDS011;38455;52.710;6.502;2023-06-19T13:16:21;11.13;;;7.10;;
52554;SDS011;38455;52.710;6.502;2023-06-19T13:18:49;11.02;;;7.68;;
52554;SDS011;38455;52.710;6.502;2023-06-19T13:21:14;10.57;;;7.00;;
52554;SDS011;38455;52.710;6.502;2023-06-19T13:23:40;8.85;;;6.53;;
52554;SDS011;38455;52.710;6.502;2023-06-19T13:26:06;9.05;;;6.75;;
52554;SDS011;38455;52.710;6.502;2023-06-19T13:28:32;13.38;;;7.38;;
52554;SDS011;38455;52.710;6.502;2023-06-19T13:30:58;11.45;;;8.40;;
52554;SDS011;38455;52.710;6.502;2023-06-19T13:33:24;13.40;;;7.97;;
52554;SDS011;38455;52.710;6.502;2023-06-19T13:35:50;12.20;;;7.90;;
52554;SDS011;38455;52.710;6.502;2023-06-19T13:38:16;10.30;;;7.93;;
52554;SDS011;38455;52.710;6.502;2023-06-19T13:40:42;14.02;;;8.98;;
52554;SDS011;38455;52.710;6.502;2023-06-19T13:43:08;12.43;;;8.07;;
52554;SDS011;38455;52.710;6.502;2023-06-19T13:45:34;10.57;;;8.27;;
52554;SDS011;38455;52.710;6.502;2023-06-19T13:48:00;13.98;;;7.45;;
52554;SDS011;38455;52.710;6.502;2023-06-19T13:50:27;10.85;;;6.75;;
52554;SDS011;38455;52.710;6.502;2023-06-19T13:52:52;9.70;;;6.70;;
52554;SDS011;38455;52.710;6.502;2023-06-19T13:55:19;9.35;;;7.82;;
52554;SDS011;38455;52.710;6.502;2023-06-19T13:57:45;12.13;;;8.02;;
52554;SDS011;38455;52.710;6.502;2023-06-19T14:00:11;12.45;;;7.10;;
52554;SDS011;38455;52.710;6.502;2023-06-19T14:02:37;10.23;;;6.55;;
52554;SDS011;38455;52.710;6.502;2023-06-19T14:05:07;13.45;;;7.00;;
52554;SDS011;38455;52.710;6.502;2023-06-19T14:07:34;8.57;;;5.63;;
52554;SDS011;38455;52.710;6.502;2023-06-19T14:10:03;9.40;;;6.28;;
52554;SDS011;38455;52.710;6.502;2023-06-19T14:12:30;5.40;;;4.10;;
52554;SDS011;38455;52.710;6.502;2023-06-19T14:14:55;8.85;;;4.80;;
52554;SDS011;38455;52.710;6.502;2023-06-19T14:17:21;5.82;;;4.22;;
52554;SDS011;38455;52.710;6.502;2023-06-19T14:19:47;6.65;;;4.50;;
52554;SDS011;38455;52.710;6.502;2023-06-19T14:22:13;5.55;;;4.18;;
52554;SDS011;38455;52.710;6.502;2023-06-19T14:24:38;6.55;;;4.22;;
52554;SDS011;38455;52.710;6.502;2023-06-19T14:27:04;7.15;;;4.45;;
52554;SDS011;38455;52.710;6.502;2023-06-19T14:29:30;5.30;;;3.95;;
52554;SDS011;38455;52.710;6.502;2023-06-19T14:31:56;4.70;;;3.60;;
52554;SDS011;38455;52.710;6.502;2023-06-19T14:34:21;8.25;;;4.07;;
52554;SDS011;38455;52.710;6.502;2023-06-19T14:36:47;7.00;;;4.80;;
52554;SDS011;38455;52.710;6.502;2023-06-19T14:39:13;5.90;;;4.95;;
52554;SDS011;38455;52.710;6.502;2023-06-19T14:41:39;7.90;;;4.28;;
52554;SDS011;38455;52.710;6.502;2023-06-19T14:44:04;6.65;;;3.97;;
52554;SDS011;38455;52.710;6.502;2023-06-19T14:46:31;6.78;;;3.42;;
52554;SDS011;38455;52.710;6.502;2023-06-19T14:48:57;7.03;;;3.53;;
52554;SDS011;38455;52.710;6.502;2023-06-19T14:51:26;4.32;;;3.25;;